createdAt,value
2017-04-10T00:00:31.956Z,89.32
2017-04-10T00:01:41.186Z,89.47
2017-04-10T00:02:50.730Z,88.89
2017-04-10T00:03:59.947Z,89.75
2017-04-10T00:05:08.838Z,89.84
2017-04-10T00:06:18.377Z,89.37
2017-04-10T00:07:27.464Z,90.03
2017-04-10T00:08:36.695Z,89.75
2017-04-10T00:09:45.918Z,90.13
2017-04-10T00:10:54.809Z,89.56
2017-04-10T00:12:04.019Z,88.99
2017-04-10T00:13:12.958Z,89.27
2017-04-10T00:14:21.851Z,89.65
2017-04-10T00:15:30.742Z,89.56
2017-04-10T00:16:39.629Z,89.08
2017-04-10T00:17:48.550Z,88.32
2017-04-10T00:18:57.440Z,88.32
2017-04-10T00:20:06.656Z,88.7
2017-04-10T00:21:15.869Z,87.56
2017-04-10T00:22:24.761Z,87.85
2017-04-10T00:23:33.976Z,88.89
2017-04-10T00:24:43.341Z,89.27
2017-04-10T00:25:52.887Z,88.99
2017-04-10T00:27:02.098Z,89.27
2017-04-10T00:28:11.963Z,89.65
2017-04-10T00:29:21.862Z,89.65
2017-04-10T00:30:31.328Z,89.84
2017-04-10T00:31:40.864Z,89.56
2017-04-10T00:32:49.755Z,89.27
2017-04-10T00:33:58.972Z,88.6
2017-04-10T00:35:08.509Z,89.47
2017-04-10T00:36:17.873Z,89.65
2017-04-10T00:37:26.766Z,89.37
2017-04-10T00:38:35.984Z,89.65
2017-04-10T00:39:45.204Z,89.47
2017-04-10T00:40:54.420Z,89.27
2017-04-10T00:42:03.789Z,89.37
2017-04-10T00:43:12.684Z,89.08
2017-04-10T00:44:22.561Z,89.18
2017-04-10T00:45:31.780Z,89.65
2017-04-10T00:46:41.004Z,89.47
2017-04-10T00:47:50.380Z,89.65
2017-04-10T00:49:00.254Z,89.89
2017-04-10T00:50:09.796Z,89.8
2017-04-10T00:51:19.009Z,89.51
2017-04-10T00:52:28.225Z,90.75
2017-04-10T00:53:37.267Z,89.99
2017-04-10T00:54:47.509Z,90.47
2017-04-10T00:55:56.404Z,90.08
2017-04-10T00:57:05.295Z,89.7
2017-04-10T00:58:14.186Z,90.66
2017-04-10T00:59:23.897Z,90.66
2017-04-10T01:00:33.450Z,91.32
2017-04-10T01:01:42.988Z,90.84
2017-04-10T01:02:51.880Z,91.42
2017-04-10T01:04:01.430Z,91.13
2017-04-10T01:05:11.442Z,91.13
2017-04-10T01:06:20.655Z,91.8
2017-04-10T01:07:29.866Z,91.7
2017-04-10T01:08:39.090Z,90.75
2017-04-10T01:09:48.304Z,90.75
2017-04-10T01:10:57.998Z,90.84
2017-04-10T01:12:06.887Z,90.94
2017-04-10T01:13:16.107Z,90.75
2017-04-10T01:14:25.660Z,90.37
2017-04-10T01:15:34.874Z,91.22
2017-04-10T01:16:44.292Z,91.03
2017-04-10T01:17:53.185Z,91.42
2017-04-10T01:19:02.729Z,91.42
2017-04-10T01:20:11.940Z,91.22
2017-04-10T01:21:20.824Z,91.32
2017-04-10T01:22:29.863Z,91.61
2017-04-10T01:23:38.750Z,91.03
2017-04-10T01:24:47.636Z,91.32
2017-04-10T01:25:56.848Z,91.7
2017-04-10T01:27:06.068Z,90.66
2017-04-10T01:28:15.254Z,90.66
2017-04-10T01:29:24.469Z,91.22
2017-04-10T01:30:33.354Z,91.13
2017-04-10T01:31:42.243Z,90.99
2017-04-10T01:32:51.127Z,91.22
2017-04-10T01:34:00.166Z,90.47
2017-04-10T01:35:09.707Z,90.28
2017-04-10T01:36:18.595Z,90.47
2017-04-10T01:37:27.804Z,90.47
2017-04-10T01:38:37.360Z,89.94
2017-04-10T01:39:47.098Z,90.23
2017-04-10T01:40:55.990Z,90.18
2017-04-10T01:42:04.882Z,90.8
2017-04-10T01:43:13.767Z,90.89
2017-04-10T01:44:22.655Z,90.7
2017-04-10T01:45:31.593Z,90.8
2017-04-10T01:46:40.477Z,90.52
2017-04-10T01:47:49.359Z,90.52
2017-04-10T01:48:58.894Z,91.37
2017-04-10T01:50:08.434Z,90.52
2017-04-10T01:51:17.796Z,91.75
2017-04-10T01:52:26.683Z,91.08
2017-04-10T01:53:35.903Z,91.47
2017-04-10T01:54:44.798Z,91.18
2017-04-10T01:55:53.694Z,91.18
2017-04-10T01:57:03.430Z,90.99
2017-04-10T01:58:12.640Z,91.18
2017-04-10T01:59:21.531Z,91.47
2017-04-10T02:00:30.422Z,90.99
2017-04-10T02:01:39.640Z,91.66
2017-04-10T02:02:48.532Z,91.47
2017-04-10T02:03:57.417Z,92.41
2017-04-10T02:05:06.309Z,92.8
2017-04-10T02:06:15.527Z,92.99
2017-04-10T02:07:24.737Z,93.18
2017-04-10T02:08:33.824Z,92.8
2017-04-10T02:09:43.036Z,93.55
2017-04-10T02:10:51.928Z,93.18
2017-04-10T02:12:00.814Z,92.99
2017-04-10T02:13:10.024Z,93.65
2017-04-10T02:14:19.216Z,92.51
2017-04-10T02:15:28.758Z,92.8
2017-04-10T02:16:37.973Z,92.22
2017-04-10T02:17:47.187Z,91.66
2017-04-10T02:18:57.049Z,91.18
2017-04-10T02:20:07.266Z,91.37
2017-04-10T02:21:16.152Z,91.28
2017-04-10T02:22:25.371Z,91.08
2017-04-10T02:23:34.586Z,90.8
2017-04-10T02:24:43.476Z,90.99
2017-04-10T02:25:52.413Z,91.18
2017-04-10T02:27:01.624Z,91.94
2017-04-10T02:28:11.166Z,92.41
2017-04-10T02:29:20.385Z,92.61
2017-04-10T02:30:29.926Z,92.22
2017-04-10T02:31:38.912Z,93.08
2017-04-10T02:32:47.803Z,92.41
2017-04-10T02:33:56.696Z,92.03
2017-04-10T02:35:05.582Z,92.03
2017-04-10T02:36:14.793Z,92.22
2017-04-10T02:37:24.410Z,92.03
2017-04-10T02:38:33.297Z,92.61
2017-04-10T02:39:42.182Z,93.18
2017-04-10T02:40:51.399Z,93.27
2017-04-10T02:42:00.614Z,93.27
2017-04-10T02:43:09.827Z,92.99
2017-04-10T02:44:19.690Z,93.08
2017-04-10T02:45:28.899Z,93.08
2017-04-10T02:46:37.787Z,93.55
2017-04-10T02:47:47.326Z,93.55
2017-04-10T02:48:57.220Z,93.65
2017-04-10T02:50:07.421Z,93.08
2017-04-10T02:51:16.309Z,92.99
2017-04-10T02:52:25.199Z,93.37
2017-04-10T02:53:34.086Z,93.75
2017-04-10T02:54:43.633Z,94.42
2017-04-10T02:55:52.522Z,94.98
2017-04-10T02:57:02.060Z,94.46
2017-04-10T02:58:10.946Z,93.99
2017-04-10T02:59:20.155Z,93.27
2017-04-10T03:00:29.140Z,93.37
2017-04-10T03:01:38.023Z,93.65
2017-04-10T03:02:46.912Z,92.99
2017-04-10T03:03:56.450Z,93.27
2017-04-10T03:05:05.338Z,93.08
2017-04-10T03:06:14.226Z,93.08
2017-04-10T03:07:23.760Z,93.18
2017-04-10T03:08:32.652Z,93.08
2017-04-10T03:09:41.866Z,92.89
2017-04-10T03:10:51.089Z,93.18
2017-04-10T03:12:00.034Z,93.55
2017-04-10T03:13:09.248Z,93.27
2017-04-10T03:14:18.460Z,93.27
2017-04-10T03:15:27.345Z,93.65
2017-04-10T03:16:36.231Z,93.18
2017-04-10T03:17:45.174Z,93.27
2017-04-10T03:18:54.071Z,93.08
2017-04-10T03:20:02.957Z,93.08
2017-04-10T03:21:12.822Z,92.89
2017-04-10T03:22:21.724Z,92.03
2017-04-10T03:23:30.776Z,92.89
2017-04-10T03:24:40.640Z,93.08
2017-04-10T03:25:49.527Z,93.46
2017-04-10T03:26:58.417Z,93.55
2017-04-10T03:28:07.307Z,92.13
2017-04-10T03:29:16.352Z,92.41
2017-04-10T03:30:25.243Z,92.51
2017-04-10T03:31:34.131Z,92.51
2017-04-10T03:32:43.349Z,91.66
2017-04-10T03:33:52.566Z,91.66
2017-04-10T03:35:02.579Z,91.37
2017-04-10T03:36:11.789Z,91.56
2017-04-10T03:37:21.001Z,91.56
2017-04-10T03:38:30.547Z,92.8
2017-04-10T03:39:39.762Z,92.41
2017-04-10T03:40:48.805Z,91.56
2017-04-10T03:41:57.695Z,91.47
2017-04-10T03:43:06.583Z,91.47
2017-04-10T03:44:15.473Z,91.94
2017-04-10T03:45:24.685Z,91.37
2017-04-10T03:46:33.734Z,91.66
2017-04-10T03:47:42.942Z,92.51
2017-04-10T03:48:51.829Z,92.03
2017-04-10T03:50:00.714Z,91.56
2017-04-10T03:51:09.605Z,91.56
2017-04-10T03:52:18.554Z,91.37
2017-04-10T03:53:27.442Z,92.03
2017-04-10T03:54:36.661Z,90.52
2017-04-10T03:55:46.200Z,91.47
2017-04-10T03:56:55.413Z,91.37
2017-04-10T03:58:04.556Z,90.89
2017-04-10T03:59:14.134Z,91.56
2017-04-10T04:00:23.021Z,90.66
2017-04-10T04:01:32.555Z,90.84
2017-04-10T04:02:41.443Z,90.08
2017-04-10T04:03:50.479Z,89.32
2017-04-10T04:04:59.695Z,89.42
2017-04-10T04:06:08.582Z,89.14
2017-04-10T04:07:17.471Z,88.37
2017-04-10T04:08:26.687Z,87.61
2017-04-10T04:09:35.729Z,87.85
2017-04-10T04:10:44.944Z,86.61
2017-04-10T04:11:54.156Z,86.7
2017-04-10T04:13:03.365Z,86.7
2017-04-10T04:14:12.575Z,86.8
2017-04-10T04:15:21.767Z,86.42
2017-04-10T04:16:30.661Z,86.51
2017-04-10T04:17:39.899Z,86.61
2017-04-10T04:18:49.111Z,86.13
2017-04-10T04:19:58.646Z,86.13
2017-04-10T04:21:07.944Z,85.85
2017-04-10T04:22:16.833Z,85.37
2017-04-10T04:23:26.048Z,84.99
2017-04-10T04:24:35.258Z,84.61
2017-04-10T04:25:44.151Z,84.13
2017-04-10T04:26:53.291Z,84.7
2017-04-10T04:28:02.187Z,85.18
2017-04-10T04:29:11.405Z,84.42
2017-04-10T04:30:20.293Z,84.89
2017-04-10T04:31:29.183Z,84.65
2017-04-10T04:32:38.870Z,84.75
2017-04-10T04:33:47.759Z,84.75
2017-04-10T04:34:56.977Z,85.03
2017-04-10T04:36:05.870Z,84.27
2017-04-10T04:37:14.755Z,83.7
2017-04-10T04:38:23.692Z,83.98
2017-04-10T04:39:32.581Z,83.7
2017-04-10T04:40:41.469Z,83.61
2017-04-10T04:41:50.357Z,83.17
2017-04-10T04:42:59.245Z,82.98
2017-04-10T04:44:08.381Z,82.98
2017-04-10T04:45:17.590Z,83.07
2017-04-10T04:46:26.805Z,83.07
2017-04-10T04:47:36.019Z,82.69
2017-04-10T04:48:44.906Z,82.79
2017-04-10T04:49:53.994Z,82.64
2017-04-10T04:51:02.882Z,83.02
2017-04-10T04:52:11.770Z,83.4
2017-04-10T04:53:20.660Z,83.78
2017-04-10T04:54:29.869Z,83.97
2017-04-10T04:55:39.235Z,84.36
2017-04-10T04:56:48.125Z,84.55
2017-04-10T04:57:57.341Z,84.55
2017-04-10T04:59:06.567Z,84.16
2017-04-10T05:00:15.460Z,84.36
2017-04-10T05:01:24.635Z,84.92
2017-04-10T05:02:33.847Z,85.02
2017-04-10T05:03:42.737Z,85.21
2017-04-10T05:04:51.626Z,85.02
2017-04-10T05:06:00.522Z,85.12
2017-04-10T05:07:09.459Z,85.21
2017-04-10T05:08:18.391Z,85.21
2017-04-10T05:09:27.933Z,85.41
2017-04-10T05:10:37.152Z,85.78
2017-04-10T05:11:46.040Z,85.88
2017-04-10T05:12:55.080Z,86.36
2017-04-10T05:14:03.971Z,86.55
2017-04-10T05:15:12.861Z,86.55
2017-04-10T05:16:21.751Z,86.74
2017-04-10T05:17:30.968Z,87.31
2017-04-10T05:18:40.329Z,87.31
2017-04-10T05:19:49.543Z,87.69
2017-04-10T05:20:58.434Z,87.88
2017-04-10T05:22:07.325Z,87.6
2017-04-10T05:23:16.543Z,88.74
2017-04-10T05:24:25.484Z,89.03
2017-04-10T05:25:35.021Z,89.22
2017-04-10T05:26:43.917Z,89.4
2017-04-10T05:27:52.814Z,89.69
2017-04-10T05:29:02.029Z,89.69
2017-04-10T05:30:11.429Z,90.17
2017-04-10T05:31:20.967Z,90.31
2017-04-10T05:32:29.862Z,90.31
2017-04-10T05:33:39.086Z,90.74
2017-04-10T05:34:47.975Z,90.74
2017-04-10T05:35:57.115Z,91.55
2017-04-10T05:37:06.003Z,91.5
2017-04-10T05:38:15.217Z,91.31
2017-04-10T05:39:24.104Z,91.31
2017-04-10T05:40:33.009Z,92.17
2017-04-10T05:41:42.219Z,92.03
2017-04-10T05:42:51.107Z,92.36
2017-04-10T05:44:00.003Z,92.27
2017-04-10T05:45:09.218Z,92.13
2017-04-10T05:46:18.438Z,91.98
2017-04-10T05:47:27.437Z,92.27
2017-04-10T05:48:36.655Z,91.98
2017-04-10T05:49:45.872Z,92.46
2017-04-10T05:50:54.759Z,92.27
2017-04-10T05:52:03.650Z,92.46
2017-04-10T05:53:13.019Z,93.03
2017-04-10T05:54:21.912Z,92.46
2017-04-10T05:55:30.803Z,92.84
2017-04-10T05:56:39.701Z,92.55
2017-04-10T05:57:48.599Z,92.6
2017-04-10T05:58:57.862Z,93.12
2017-04-10T06:00:06.778Z,93.37
2017-04-10T06:01:15.994Z,93.93
2017-04-10T06:02:25.207Z,93.08
2017-04-10T06:03:34.105Z,93.03
2017-04-10T06:04:43.993Z,93.12
2017-04-10T06:05:52.891Z,92.84
2017-04-10T06:07:02.112Z,93.22
2017-04-10T06:08:11.009Z,92.84
2017-04-10T06:09:20.226Z,92.84
2017-04-10T06:10:29.126Z,92.46
2017-04-10T06:11:38.020Z,92.55
2017-04-10T06:12:46.912Z,92.55
2017-04-10T06:13:55.802Z,92.55
2017-04-10T06:15:04.695Z,93.22
2017-04-10T06:16:13.737Z,92.36
2017-04-10T06:17:22.632Z,92.84
2017-04-10T06:18:31.524Z,92.46
2017-04-10T06:19:40.415Z,92.65
2017-04-10T06:20:49.308Z,93.03
2017-04-10T06:21:58.352Z,93.03
2017-04-10T06:23:07.245Z,92.46
2017-04-10T06:24:16.459Z,92.46
2017-04-10T06:25:25.392Z,92.6
2017-04-10T06:26:34.607Z,92.74
2017-04-10T06:27:44.407Z,92.22
2017-04-10T06:28:53.325Z,92.27
2017-04-10T06:30:02.216Z,92.22
2017-04-10T06:31:11.109Z,92.74
2017-04-10T06:32:20.008Z,92.46
2017-04-10T06:33:29.101Z,92.65
2017-04-10T06:34:38.008Z,92.65
2017-04-10T06:35:46.905Z,92.84
2017-04-10T06:36:55.799Z,92.46
2017-04-10T06:38:04.693Z,93.03
2017-04-10T06:39:13.838Z,92.84
2017-04-10T06:40:23.053Z,92.74
2017-04-10T06:41:32.273Z,93.12
2017-04-10T06:42:41.171Z,92.69
2017-04-10T06:43:50.060Z,92.46
2017-04-10T06:44:59.054Z,92.55
2017-04-10T06:46:08.272Z,92.84
2017-04-10T06:47:17.164Z,92.74
2017-04-10T06:48:26.064Z,92.65
2017-04-10T06:49:34.963Z,92.84
2017-04-10T06:50:44.004Z,92.08
2017-04-10T06:51:53.879Z,92.08
2017-04-10T06:53:03.459Z,92.55
2017-04-10T06:54:12.359Z,92.36
2017-04-10T06:55:21.664Z,92.65
2017-04-10T06:56:31.003Z,92.93
2017-04-10T06:57:39.989Z,92.74
2017-04-10T06:58:48.881Z,92.36
2017-04-10T06:59:57.813Z,91.41
2017-04-10T07:01:06.743Z,90.84
2017-04-10T07:02:15.785Z,91.41
2017-04-10T07:03:24.692Z,91.22
2017-04-10T07:04:33.869Z,91.31
2017-04-10T07:05:42.768Z,91.31
2017-04-10T07:06:51.664Z,91.84
2017-04-10T07:08:01.388Z,91.6
2017-04-10T07:09:10.279Z,91.5
2017-04-10T07:10:19.172Z,91.31
2017-04-10T07:11:28.067Z,91.22
2017-04-10T07:12:37.293Z,91.5
2017-04-10T07:13:46.672Z,92.17
2017-04-10T07:14:55.562Z,91.98
2017-04-10T07:16:04.776Z,91.36
2017-04-10T07:17:13.711Z,91.5
2017-04-10T07:18:22.614Z,91.6
2017-04-10T07:19:31.987Z,91.31
2017-04-10T07:20:40.898Z,91.5
2017-04-10T07:21:49.802Z,91.31
2017-04-10T07:22:58.699Z,91.03
2017-04-10T07:24:07.594Z,90.08
2017-04-10T07:25:16.593Z,90.08
2017-04-10T07:26:25.818Z,90.08
2017-04-10T07:27:34.718Z,90.17
2017-04-10T07:28:43.607Z,89.79
2017-04-10T07:29:52.520Z,88.5
2017-04-10T07:31:01.675Z,89.4
2017-04-10T07:32:10.570Z,88.74
2017-04-10T07:33:19.463Z,88.64
2017-04-10T07:34:28.360Z,89.5
2017-04-10T07:35:37.574Z,88.55
2017-04-10T07:36:47.448Z,88.93
2017-04-10T07:37:56.341Z,89.4
2017-04-10T07:39:05.238Z,89.22
2017-04-10T07:40:14.457Z,89.31
2017-04-10T07:41:23.353Z,89.79
2017-04-10T07:42:32.897Z,89.89
2017-04-10T07:43:41.791Z,89.4
2017-04-10T07:44:50.688Z,89.79
2017-04-10T07:45:59.905Z,89.69
2017-04-10T07:47:09.452Z,90.45
2017-04-10T07:48:18.346Z,90.45
2017-04-10T07:49:27.566Z,90.64
2017-04-10T07:50:36.456Z,90.08
2017-04-10T07:51:45.352Z,89.79
2017-04-10T07:52:54.242Z,90.36
2017-04-10T07:54:03.135Z,90.17
2017-04-10T07:55:12.029Z,90.08
2017-04-10T07:56:20.925Z,90.36
2017-04-10T07:57:29.830Z,89.98
2017-04-10T07:58:38.725Z,90.26
2017-04-10T07:59:47.767Z,91.13
2017-04-10T08:00:56.662Z,89.69
2017-04-10T08:02:05.556Z,89.98
2017-04-10T08:03:14.447Z,90.08
2017-04-10T08:04:23.707Z,89.98
2017-04-10T08:05:33.090Z,90.17
2017-04-10T08:06:41.989Z,89.6
2017-04-10T08:07:50.882Z,89.4
2017-04-10T08:08:59.777Z,88.93
2017-04-10T08:10:08.994Z,89.03
2017-04-10T08:11:18.698Z,89.89
2017-04-10T08:12:28.244Z,89.36
2017-04-10T08:13:37.781Z,89.07
2017-04-10T08:14:46.996Z,88.98
2017-04-10T08:15:55.891Z,89.65
2017-04-10T08:17:05.483Z,89.17
2017-04-10T08:18:14.372Z,88.98
2017-04-10T08:19:23.597Z,89.46
2017-04-10T08:21:04.881Z,89.84
2017-04-10T08:22:13.974Z,90.22
2017-04-10T08:23:23.192Z,89.55
2017-04-10T08:24:32.088Z,89.07
2017-04-10T08:25:41.338Z,89.17
2017-04-10T08:26:50.248Z,88.7
2017-04-10T08:27:59.336Z,88.41
2017-04-10T08:29:08.897Z,88.89
2017-04-10T08:30:17.787Z,88.7
2017-04-10T08:31:26.677Z,87.93
2017-04-10T08:32:35.565Z,87.65
2017-04-10T08:33:44.603Z,87.65
2017-04-10T08:34:53.498Z,87.84
2017-04-10T08:36:02.390Z,87.93
2017-04-10T08:37:11.613Z,88.22
2017-04-10T08:38:20.825Z,88.89
2017-04-10T08:39:29.862Z,89.07
2017-04-10T08:40:38.760Z,89.61
2017-04-10T08:41:47.978Z,89.03
2017-04-10T08:42:56.866Z,88.84
2017-04-10T08:44:05.758Z,88.7
2017-04-10T08:45:15.054Z,88.46
2017-04-10T08:46:23.980Z,88.37
2017-04-10T08:47:32.868Z,87.93
2017-04-10T08:48:41.798Z,87.74
2017-04-10T08:49:50.721Z,87.93
2017-04-10T08:50:59.864Z,87.93
2017-04-10T08:52:08.757Z,88.41
2017-04-10T08:53:17.650Z,88.79
2017-04-10T08:54:26.870Z,88.89
2017-04-10T08:55:35.815Z,88.41
2017-04-10T08:56:44.857Z,89.26
2017-04-10T08:57:54.073Z,89.26
2017-04-10T08:59:03.289Z,89.26
2017-04-10T09:00:12.503Z,89.17
2017-04-10T09:01:21.718Z,89.26
2017-04-10T09:02:30.936Z,88.84
2017-04-10T09:03:39.833Z,88.79
2017-04-10T09:04:48.725Z,88.22
2017-04-10T09:05:57.616Z,88.31
2017-04-10T09:07:06.836Z,87.93
2017-04-10T09:08:15.930Z,87.93
2017-04-10T09:09:24.823Z,87.93
2017-04-10T09:10:34.038Z,87.74
2017-04-10T09:11:42.931Z,87.74
2017-04-10T09:12:51.822Z,87.84
2017-04-10T09:14:01.012Z,86.79
2017-04-10T09:15:09.912Z,85.27
2017-04-10T09:16:19.129Z,84.69
2017-04-10T09:17:28.344Z,85.17
2017-04-10T09:18:37.233Z,85.64
2017-04-10T09:19:46.271Z,85.46
2017-04-10T09:20:55.167Z,85.55
2017-04-10T09:22:04.384Z,85.46
2017-04-10T09:23:13.605Z,85.17
2017-04-10T09:24:22.495Z,83.93
2017-04-10T09:25:31.438Z,83.93
2017-04-10T09:26:40.329Z,84.12
2017-04-10T09:27:49.219Z,83.93
2017-04-10T09:28:58.433Z,83.93
2017-04-10T09:30:07.327Z,84.22
2017-04-10T09:31:16.546Z,84.31
2017-04-10T09:32:25.442Z,84.6
2017-04-10T09:33:34.333Z,85.64
2017-04-10T09:34:43.260Z,85.36
2017-04-10T09:35:52.162Z,86.41
2017-04-10T09:37:01.208Z,86.46
2017-04-10T09:38:10.102Z,86.36
2017-04-10T09:39:18.994Z,85.99
2017-04-10T09:40:28.221Z,85.51
2017-04-10T09:41:37.762Z,84.79
2017-04-10T09:42:46.824Z,84.6
2017-04-10T09:43:55.717Z,84.69
2017-04-10T09:45:04.610Z,84.88
2017-04-10T09:46:13.503Z,84.94
2017-04-10T09:47:22.397Z,85.08
2017-04-10T09:48:31.597Z,84.03
2017-04-10T09:49:40.488Z,84.41
2017-04-10T09:50:49.379Z,84.69
2017-04-10T09:51:58.271Z,85.51
2017-04-10T09:53:07.164Z,85.99
2017-04-10T09:54:16.303Z,86.65
2017-04-10T09:55:25.197Z,86.55
2017-04-10T09:56:34.423Z,86.75
2017-04-10T09:57:43.319Z,86.94
2017-04-10T09:58:52.210Z,87.7
2017-04-10T10:00:01.101Z,88.08
2017-04-10T10:01:10.002Z,88.75
2017-04-10T10:02:18.895Z,89.22
2017-04-10T10:03:27.786Z,88.84
2017-04-10T10:04:36.687Z,87.7
2017-04-10T10:05:45.833Z,86.84
2017-04-10T10:06:54.737Z,86.75
2017-04-10T10:08:03.627Z,85.32
2017-04-10T10:09:12.517Z,85.22
2017-04-10T10:10:21.407Z,84.36
2017-04-10T10:11:30.496Z,83.8
2017-04-10T10:12:39.394Z,82.93
2017-04-10T10:13:48.283Z,82.18
2017-04-10T10:14:57.174Z,82.84
2017-04-10T10:16:06.394Z,82.27
2017-04-10T10:17:15.587Z,81.26
2017-04-10T10:18:24.477Z,81.51
2017-04-10T10:19:33.691Z,82.21
2017-04-10T10:20:42.907Z,82.31
2017-04-10T10:21:51.797Z,82.41
2017-04-10T10:23:01.167Z,81.7
2017-04-10T10:24:10.060Z,82.37
2017-04-10T10:25:18.955Z,83.13
2017-04-10T10:26:27.849Z,82.93
2017-04-10T10:27:37.065Z,82.18
2017-04-10T10:28:46.059Z,82.65
2017-04-10T10:29:54.961Z,82.27
2017-04-10T10:31:03.856Z,81.7
2017-04-10T10:32:12.748Z,81.17
2017-04-10T10:33:21.637Z,82.18
2017-04-10T10:34:30.579Z,81.23
2017-04-10T10:35:39.471Z,80.75
2017-04-10T10:36:49.014Z,80.08
2017-04-10T10:37:58.233Z,80.84
2017-04-10T10:39:07.454Z,80.79
2017-04-10T10:40:17.046Z,80.31
2017-04-10T10:41:25.939Z,79.46
2017-04-10T10:42:34.836Z,79.64
2017-04-10T10:43:43.724Z,79.46
2017-04-10T10:44:52.619Z,78.69
2017-04-10T10:46:01.710Z,79.07
2017-04-10T10:47:10.602Z,79.64
2017-04-10T10:48:19.494Z,78.88
2017-04-10T10:49:29.036Z,78.88
2017-04-10T10:50:37.927Z,78.69
2017-04-10T10:51:47.123Z,78.59
2017-04-10T10:52:56.341Z,78.41
2017-04-10T10:54:05.238Z,77.87
2017-04-10T10:55:14.132Z,77.2
2017-04-10T10:56:23.024Z,75.4
2017-04-10T10:57:32.183Z,74.44
2017-04-10T10:58:41.072Z,75.11
2017-04-10T10:59:49.972Z,74.92
2017-04-10T11:00:59.186Z,72.63
2017-04-10T11:02:08.420Z,72.16
2017-04-10T11:03:17.412Z,70.92
2017-04-10T11:04:26.633Z,71.87
2017-04-10T11:05:35.526Z,71.68
2017-04-10T11:06:44.741Z,72.06
2017-04-10T11:07:53.959Z,71.87
2017-04-10T11:09:03.051Z,71.68
2017-04-10T11:10:11.957Z,71.3
2017-04-10T11:11:21.176Z,70.72
2017-04-10T11:12:30.070Z,70.82
2017-04-10T11:13:38.967Z,71.11
2017-04-10T11:14:48.338Z,71.3
2017-04-10T11:15:57.554Z,70.19
2017-04-10T11:17:06.447Z,69.9
2017-04-10T11:18:15.345Z,70.06
2017-04-10T11:19:24.562Z,69.33
2017-04-10T11:20:33.459Z,69.01
2017-04-10T11:21:42.352Z,68.72
2017-04-10T11:22:51.577Z,68.44
2017-04-10T11:24:00.476Z,68.57
2017-04-10T11:25:09.373Z,67.42
2017-04-10T11:26:18.651Z,67.14
2017-04-10T11:27:27.564Z,67.23
2017-04-10T11:28:36.459Z,66.75
2017-04-10T11:29:45.390Z,67.04
2017-04-10T11:30:54.289Z,66.85
2017-04-10T11:32:03.888Z,67.23
2017-04-10T11:33:12.792Z,66.88
2017-04-10T11:34:21.689Z,67.07
2017-04-10T11:35:30.583Z,67.46
2017-04-10T11:36:39.482Z,67.17
2017-04-10T11:37:48.910Z,66.98
2017-04-10T11:38:58.128Z,66.6
2017-04-10T11:40:07.023Z,66.88
2017-04-10T11:41:15.922Z,64.78
2017-04-10T11:42:24.818Z,64.02
2017-04-10T11:43:34.012Z,64.5
2017-04-10T11:44:42.910Z,63.16
2017-04-10T11:45:51.808Z,61.35
2017-04-10T11:47:00.752Z,61.8
2017-04-10T11:48:09.972Z,61.16
2017-04-10T11:49:19.336Z,60.97
2017-04-10T11:50:28.229Z,60.49
2017-04-10T11:51:37.129Z,60.3
2017-04-10T11:52:46.027Z,60.39
2017-04-10T11:53:55.261Z,61.04
2017-04-10T11:55:04.315Z,61.44
2017-04-10T11:56:13.217Z,61.44
2017-04-10T11:57:22.111Z,61.35
2017-04-10T11:58:31.016Z,60.97
2017-04-10T11:59:39.927Z,60.78
2017-04-10T12:00:49.312Z,60.49
2017-04-10T12:01:58.217Z,60.39
2017-04-10T12:03:07.441Z,60.3
2017-04-10T12:04:16.342Z,59.92
2017-04-10T12:05:25.243Z,59.92
2017-04-10T12:06:34.296Z,59.34
2017-04-10T12:07:43.515Z,59.44
2017-04-10T12:08:52.410Z,59.28
2017-04-10T12:10:01.304Z,60.04
2017-04-10T12:11:10.533Z,59.56
2017-04-10T12:12:19.801Z,58.61
2017-04-10T12:13:28.693Z,57.94
2017-04-10T12:14:37.925Z,58.42
2017-04-10T12:15:46.868Z,58.26
2017-04-10T12:16:55.822Z,57.11
2017-04-10T12:18:04.873Z,57.78
2017-04-10T12:19:13.770Z,57.87
2017-04-10T12:20:22.669Z,58.07
2017-04-10T12:21:31.569Z,59.09
2017-04-10T12:22:40.789Z,59.16
2017-04-10T12:23:49.746Z,58.8
2017-04-10T12:24:58.646Z,59.28
2017-04-10T12:26:07.542Z,58.99
2017-04-10T12:27:16.436Z,59.56
2017-04-10T12:28:25.977Z,59.09
2017-04-10T12:29:35.020Z,59.19
2017-04-10T12:30:43.924Z,59.76
2017-04-10T12:31:52.830Z,58.42
2017-04-10T12:33:01.726Z,58.42
2017-04-10T12:34:10.968Z,57.85
2017-04-10T12:35:20.114Z,56.99
2017-04-10T12:36:29.338Z,56.32
2017-04-10T12:37:38.236Z,56.41
2017-04-10T12:38:47.152Z,56.23
2017-04-10T12:39:56.053Z,56.54
2017-04-10T12:41:05.149Z,56.63
2017-04-10T12:42:14.048Z,54.63
2017-04-10T12:43:22.962Z,54.53
2017-04-10T12:44:31.861Z,54.53
2017-04-10T12:45:41.087Z,55.11
2017-04-10T12:46:50.457Z,54.82
2017-04-10T12:47:59.358Z,55.65
2017-04-10T12:49:08.581Z,55.4
2017-04-10T12:50:17.474Z,56.04
2017-04-10T12:51:26.385Z,56.04
2017-04-10T12:52:35.656Z,56.16
2017-04-10T12:53:44.552Z,56.06
2017-04-10T12:54:53.451Z,55.96
2017-04-10T12:56:02.344Z,56.06
2017-04-10T12:57:11.241Z,55.58
2017-04-10T12:58:20.187Z,55.96
2017-04-10T12:59:29.089Z,55.58
2017-04-10T13:00:37.987Z,56.25
2017-04-10T13:01:47.537Z,55.96
2017-04-10T13:02:56.433Z,56.45
2017-04-10T13:04:05.579Z,57.02
2017-04-10T13:05:14.476Z,57.11
2017-04-10T13:06:24.021Z,58.45
2017-04-10T13:07:32.917Z,58.16
2017-04-10T13:08:42.138Z,58.9
2017-04-10T13:09:51.083Z,59.28
2017-04-10T13:10:59.984Z,58.83
2017-04-10T13:12:08.881Z,57.5
2017-04-10T13:13:18.107Z,58.16
2017-04-10T13:14:27.656Z,58.16
2017-04-10T13:15:36.861Z,57.21
2017-04-10T13:16:45.760Z,57.4
2017-04-10T13:17:54.665Z,56.67
2017-04-10T13:19:04.217Z,57.62
2017-04-10T13:20:13.123Z,57.59
2017-04-10T13:21:22.121Z,58.45
2017-04-10T13:22:31.348Z,58.8
2017-04-10T13:23:40.249Z,58.42
2017-04-10T13:24:49.153Z,59.47
2017-04-10T13:25:58.048Z,59.95
2017-04-10T13:27:07.095Z,59.38
2017-04-10T13:28:16.328Z,59.19
2017-04-10T13:29:25.550Z,59.56
2017-04-10T13:30:34.445Z,58.99
2017-04-10T13:31:43.339Z,59.28
2017-04-10T13:32:52.914Z,58.7
2017-04-10T13:34:02.149Z,59.09
2017-04-10T13:35:11.052Z,59.47
2017-04-10T13:36:19.944Z,59.09
2017-04-10T13:37:28.843Z,59.56
2017-04-10T13:38:37.818Z,59.47
2017-04-10T13:39:46.713Z,58.8
2017-04-10T13:40:55.614Z,58.58
2017-04-10T13:42:04.827Z,58.39
2017-04-10T13:43:14.051Z,58.68
2017-04-10T13:44:22.992Z,59.25
2017-04-10T13:45:31.884Z,59.06
2017-04-10T13:46:40.777Z,58.58
2017-04-10T13:47:49.673Z,58.48
2017-04-10T13:48:58.563Z,59.16
2017-04-10T13:50:07.560Z,59.7
2017-04-10T13:51:16.455Z,59.7
2017-04-10T13:52:25.350Z,59.7
2017-04-10T13:53:34.244Z,60.36
2017-04-10T13:54:43.140Z,60.65
2017-04-10T13:55:52.231Z,60.46
2017-04-10T13:57:01.449Z,61.51
2017-04-10T13:58:10.350Z,60.84
2017-04-10T13:59:19.248Z,60.84
2017-04-10T14:00:28.151Z,61.51
2017-04-10T14:01:37.195Z,61.6
2017-04-10T14:02:46.417Z,61.8
2017-04-10T14:03:55.310Z,62.08
2017-04-10T14:05:04.208Z,61.6
2017-04-10T14:06:13.427Z,61.89
2017-04-10T14:07:22.692Z,61.8
2017-04-10T14:08:31.585Z,61.63
2017-04-10T14:09:40.476Z,60.75
2017-04-10T14:10:49.367Z,61.44
2017-04-10T14:11:58.269Z,61.7
2017-04-10T14:13:08.088Z,61.83
2017-04-10T14:14:17.301Z,61.83
2017-04-10T14:15:26.193Z,61.92
2017-04-10T14:16:35.085Z,62.02
2017-04-10T14:17:43.980Z,61.83
2017-04-10T14:18:53.036Z,61.83
2017-04-10T14:20:02.262Z,62.11
2017-04-10T14:21:11.486Z,62.27
2017-04-10T14:22:20.390Z,62.18
2017-04-10T14:23:29.618Z,62.02
2017-04-10T14:24:38.662Z,61.8
2017-04-10T14:25:47.886Z,62.08
2017-04-10T14:26:57.432Z,62.21
2017-04-10T14:28:06.326Z,61.83
2017-04-10T14:29:15.229Z,61.83
2017-04-10T14:30:24.603Z,62.02
2017-04-10T14:31:33.499Z,61.83
2017-04-10T14:32:42.394Z,62.02
2017-04-10T14:33:51.289Z,62.21
2017-04-10T14:35:00.836Z,61.44
2017-04-10T14:36:09.886Z,60.87
2017-04-10T14:37:18.837Z,60.81
2017-04-10T14:38:28.066Z,60.14
2017-04-10T14:39:36.964Z,60.49
2017-04-10T14:40:45.859Z,60.39
2017-04-10T14:41:55.275Z,61.35
2017-04-10T14:43:04.191Z,62.11
2017-04-10T14:44:13.094Z,62.11
2017-04-10T14:45:22.320Z,61.92
2017-04-10T14:46:31.215Z,62.02
2017-04-10T14:47:40.837Z,62.75
2017-04-10T14:48:49.733Z,62.68
2017-04-10T14:49:58.957Z,61.83
2017-04-10T14:51:07.853Z,61.63
2017-04-10T14:52:16.757Z,62.56
2017-04-10T14:53:25.801Z,61.99